createdAt,value
2019-02-07T04:35:40.596Z,99.90
2019-02-07T04:38:24.861Z,99.90
2019-02-07T04:41:01.652Z,99.90
2019-02-07T04:43:46.614Z,99.90
2019-02-07T04:46:27.381Z,99.90
2019-02-07T04:49:27.838Z,99.90
2019-02-07T04:52:16.226Z,99.90
2019-02-07T04:55:13.219Z,99.90
2019-02-07T04:57:55.081Z,99.90
2019-02-07T05:00:41.739Z,99.90
2019-02-07T05:03:24.932Z,99.90
2019-02-07T05:06:07.859Z,99.90
2019-02-07T05:09:04.783Z,99.90
2019-02-07T05:11:55.375Z,99.90
2019-02-07T05:14:39.426Z,99.90
2019-02-07T05:17:26.579Z,99.90
2019-02-07T05:20:23.777Z,99.90
2019-02-07T05:23:12.993Z,99.90
2019-02-07T05:26:01.036Z,99.90
2019-02-07T05:28:52.059Z,99.90
2019-02-07T05:31:33.044Z,99.90
2019-02-07T05:34:24.729Z,99.90
2019-02-07T05:37:09.215Z,99.90
2019-02-07T05:39:53.931Z,99.90
2019-02-07T05:42:40.490Z,99.90
2019-02-07T05:45:31.680Z,99.90
2019-02-07T05:48:10.907Z,99.90
2019-02-07T05:50:57.486Z,99.90
2019-02-07T05:53:36.954Z,99.90
2019-02-07T05:56:43.534Z,99.90
2019-02-07T05:59:41.418Z,99.90
2019-02-07T06:02:17.647Z,99.90
2019-02-07T06:05:04.409Z,99.90
2019-02-07T06:07:50.790Z,99.90
2019-02-07T06:10:33.819Z,99.90
2019-02-07T06:13:36.977Z,99.90
2019-02-07T06:16:25.678Z,99.90
2019-02-07T06:19:27.247Z,99.90
2019-02-07T06:22:13.903Z,99.90
2019-02-07T06:25:05.019Z,99.90
2019-02-07T06:27:53.453Z,99.90
2019-02-07T06:30:47.362Z,99.90
2019-02-07T06:33:37.616Z,99.90
2019-02-07T06:36:28.858Z,99.90
2019-02-07T06:39:22.743Z,99.90
2019-02-07T06:42:08.186Z,99.90
2019-02-07T06:45:08.061Z,99.90
2019-02-07T06:48:10.966Z,99.90
2019-02-07T06:50:54.956Z,99.90
2019-02-07T06:54:01.142Z,99.90
2019-02-07T06:56:49.143Z,99.90
2019-02-07T06:59:45.887Z,99.90
2019-02-07T07:02:29.930Z,99.90
2019-02-07T07:05:17.963Z,99.90
2019-02-07T07:08:03.313Z,99.90
2019-02-07T07:10:50.165Z,99.90
2019-02-07T07:13:36.760Z,99.90
2019-02-07T07:16:30.942Z,99.90
2019-02-07T07:19:28.315Z,99.90
2019-02-07T07:22:14.701Z,99.90
2019-02-07T07:25:01.523Z,99.90
2019-02-07T07:27:49.574Z,99.90
2019-02-07T07:30:53.375Z,99.90
2019-02-07T07:33:47.194Z,99.90
2019-02-07T07:36:38.263Z,99.90
2019-02-07T07:39:31.519Z,99.90
2019-02-07T07:42:18.455Z,99.90
2019-02-07T07:45:05.589Z,99.90
2019-02-07T07:47:52.542Z,99.90
2019-02-07T07:50:39.576Z,99.90
2019-02-07T07:53:36.796Z,99.90
2019-02-07T07:56:15.585Z,99.90
2019-02-07T07:58:58.355Z,99.90
2019-02-07T08:01:46.376Z,99.90
2019-02-07T08:04:33.026Z,99.90
2019-02-07T08:07:11.155Z,99.90
2019-02-07T08:10:05.025Z,99.90
2019-02-07T08:13:08.104Z,99.90
2019-02-07T08:15:54.876Z,99.90
2019-02-07T08:18:41.996Z,99.90
2019-02-07T08:21:28.916Z,99.90
2019-02-07T08:24:20.039Z,99.90
2019-02-07T08:27:14.722Z,99.90
2019-02-07T08:29:58.294Z,99.90
2019-02-07T08:32:55.287Z,99.90
2019-02-07T08:35:34.464Z,99.90
2019-02-07T08:38:22.645Z,99.90
2019-02-07T08:41:10.752Z,99.90
2019-02-07T08:43:58.754Z,99.90
2019-02-07T08:46:45.155Z,99.90
2019-02-07T08:49:31.613Z,99.90
2019-02-07T08:52:23.145Z,99.90
2019-02-07T08:55:23.220Z,99.90
2019-02-07T08:58:11.249Z,99.90
2019-02-07T09:00:58.037Z,99.70
2019-02-07T09:03:51.983Z,98.50
2019-02-07T09:06:48.586Z,99.10
2019-02-07T09:09:33.194Z,98.50
2019-02-07T09:12:30.084Z,98.40
2019-02-07T09:15:17.043Z,98.00
2019-02-07T09:18:11.339Z,97.70
2019-02-07T09:20:56.114Z,97.60
2019-02-07T09:23:42.883Z,98.20
2019-02-07T09:26:24.661Z,98.60
2019-02-07T09:29:11.193Z,98.40
2019-02-07T09:32:14.439Z,98.00
2019-02-07T09:35:06.315Z,98.80
2019-02-07T09:38:06.815Z,98.70
2019-02-07T09:40:57.718Z,98.90
2019-02-07T09:43:41.963Z,98.60
2019-02-07T09:46:28.459Z,97.70
2019-02-07T09:49:10.986Z,96.90
2019-02-07T09:51:50.546Z,96.10
2019-02-07T09:54:37.420Z,96.60
2019-02-07T09:57:28.677Z,96.90
2019-02-07T10:00:16.682Z,96.30
2019-02-07T10:03:07.270Z,95.80
2019-02-07T10:05:47.029Z,94.80
2019-02-07T10:08:31.213Z,95.00
2019-02-07T10:11:21.262Z,94.60
2019-02-07T10:14:24.530Z,94.10
2019-02-07T10:17:30.530Z,93.70
2019-02-07T10:20:21.134Z,92.90
2019-02-07T10:23:27.306Z,92.00
2019-02-07T10:26:28.086Z,92.60
2019-02-07T10:29:19.103Z,91.60
2019-02-07T10:32:07.091Z,92.00
2019-02-07T10:34:55.162Z,91.00
2019-02-07T10:37:32.203Z,91.00
2019-02-07T10:40:18.974Z,90.80
2019-02-07T10:43:05.941Z,90.90
2019-02-07T10:45:46.097Z,91.60
2019-02-07T10:48:43.951Z,90.70
2019-02-07T10:51:37.761Z,90.40
2019-02-07T10:54:32.002Z,90.40
2019-02-07T10:57:26.003Z,90.40
2019-02-07T11:00:25.930Z,90.10
2019-02-07T11:03:13.966Z,90.40
2019-02-07T11:06:03.598Z,90.50
2019-02-07T11:09:22.203Z,91.70
2019-02-07T11:12:09.202Z,91.40
2019-02-07T11:14:56.086Z,91.50
2019-02-07T11:17:42.685Z,92.20
2019-02-07T11:20:42.311Z,92.30
2019-02-07T11:23:42.630Z,92.60
2019-02-07T11:26:29.250Z,92.70
2019-02-07T11:29:29.879Z,93.10
2019-02-07T11:32:14.582Z,93.70
2019-02-07T11:34:59.921Z,93.50
2019-02-07T11:37:53.862Z,93.80
2019-02-07T11:40:43.741Z,93.70
2019-02-07T11:43:37.605Z,93.50
2019-02-07T11:46:24.426Z,94.00
2019-02-07T11:49:10.910Z,93.10
2019-02-07T11:52:13.970Z,93.40
2019-02-07T11:54:51.287Z,94.10
2019-02-07T11:57:39.277Z,94.20
2019-02-07T12:00:37.657Z,94.30
2019-02-07T12:03:25.918Z,94.10
2019-02-07T12:06:29.126Z,94.20
2019-02-07T12:09:25.811Z,94.50
2019-02-07T12:12:29.213Z,93.70
2019-02-07T12:15:15.684Z,93.50
2019-02-07T12:18:05.955Z,93.50
2019-02-07T12:20:54.475Z,93.40
2019-02-07T12:23:57.484Z,93.30
2019-02-07T12:26:57.670Z,92.90
2019-02-07T12:29:57.725Z,93.10
2019-02-07T12:32:36.499Z,92.50
2019-02-07T12:35:30.142Z,92.20
2019-02-07T12:38:30.398Z,92.10
2019-02-07T12:41:18.403Z,92.70
2019-02-07T12:44:03.938Z,93.30
2019-02-07T12:46:50.783Z,92.90
2019-02-07T12:49:47.730Z,92.70
2019-02-07T12:52:30.279Z,92.70
2019-02-07T12:55:26.756Z,93.00
2019-02-07T12:58:17.417Z,92.40
2019-02-07T13:01:03.066Z,93.30
2019-02-07T13:07:02.264Z,92.10
2019-02-07T13:10:02.654Z,92.90
2019-02-07T13:12:50.727Z,93.20
2019-02-07T13:15:37.717Z,92.90
2019-02-07T13:18:25.863Z,93.10
2019-02-07T13:21:19.941Z,93.30
2019-02-07T13:24:06.716Z,93.40
2019-02-07T13:26:55.290Z,93.30
2019-02-07T13:29:51.049Z,92.80
2019-02-07T13:32:34.703Z,93.20
2019-02-07T13:35:17.514Z,92.90
2019-02-07T13:38:17.574Z,93.30
2019-02-07T13:41:11.986Z,92.30
2019-02-07T13:44:02.683Z,92.70
2019-02-07T13:46:45.903Z,91.90
2019-02-07T13:49:32.315Z,92.90
2019-02-07T13:52:12.140Z,93.00
2019-02-07T13:55:00.691Z,92.70
2019-02-07T13:57:57.534Z,92.80
2019-02-07T14:00:51.569Z,92.50
2019-02-07T14:03:37.193Z,92.10
2019-02-07T14:06:32.893Z,91.80
2019-02-07T14:09:23.636Z,92.00
2019-02-07T14:12:30.035Z,92.10
2019-02-07T14:15:36.042Z,92.30
2019-02-07T14:18:24.045Z,92.40
2019-02-07T14:21:10.733Z,92.30
2019-02-07T14:24:07.843Z,92.50
2019-02-07T14:26:49.686Z,92.30
2019-02-07T14:29:36.383Z,92.70
2019-02-07T14:32:24.431Z,93.00
2019-02-07T14:35:06.063Z,93.10
2019-02-07T14:37:54.090Z,93.20
2019-02-07T14:40:44.963Z,92.90
2019-02-07T14:43:39.323Z,93.00
2019-02-07T14:46:26.227Z,93.60
2019-02-07T14:48:55.366Z,93.50
2019-02-07T14:51:24.413Z,93.20
2019-02-07T14:53:53.465Z,92.70
2019-02-07T14:56:22.546Z,92.10
2019-02-07T14:58:51.850Z,92.40
2019-02-07T15:01:20.907Z,92.80
2019-02-07T15:03:50.006Z,92.40
2019-02-07T15:06:19.029Z,92.30
2019-02-07T15:08:48.125Z,92.00
2019-02-07T15:11:17.289Z,92.50
2019-02-07T15:13:46.818Z,92.40
2019-02-07T15:16:15.898Z,92.40
2019-02-07T15:18:46.200Z,92.30
2019-02-07T15:21:15.487Z,92.80
2019-02-07T15:23:44.522Z,92.40
2019-02-07T15:26:13.602Z,93.00
2019-02-07T15:28:43.042Z,92.60
2019-02-07T15:31:12.084Z,92.60
2019-02-07T15:33:41.182Z,92.60
2019-02-07T15:36:11.162Z,93.20
2019-02-07T15:38:40.279Z,92.90
2019-02-07T15:41:09.362Z,92.90
2019-02-07T15:43:38.513Z,92.90
2019-02-07T15:46:07.799Z,93.20
2019-02-07T15:48:36.951Z,93.40
2019-02-07T15:51:06.003Z,93.50
2019-02-07T15:53:35.060Z,93.80
2019-02-07T15:56:04.207Z,93.90
2019-02-07T15:58:58.285Z,94.30
2019-02-07T16:01:40.581Z,94.40
2019-02-07T16:04:15.778Z,94.40
2019-02-07T16:06:44.979Z,94.40
2019-02-07T16:09:14.811Z,94.50
2019-02-07T16:11:43.859Z,94.50
2019-02-07T16:14:13.762Z,94.80
2019-02-07T16:16:42.810Z,95.00
2019-02-07T16:19:11.863Z,95.40
2019-02-07T16:21:40.949Z,95.70
2019-02-07T16:24:09.977Z,95.90
2019-02-07T16:26:58.210Z,96.20
2019-02-07T16:29:28.246Z,96.30
2019-02-07T16:31:58.037Z,96.50
2019-02-07T16:34:28.364Z,96.50
2019-02-07T16:36:57.421Z,96.60
2019-02-07T16:39:26.830Z,96.60
2019-02-07T16:42:05.620Z,96.20
2019-02-07T16:44:26.554Z,95.80
2019-02-07T16:46:55.551Z,95.90
2019-02-07T16:49:24.589Z,95.90
2019-02-07T16:51:53.649Z,96.40
2019-02-07T16:54:22.636Z,95.90
2019-02-07T16:56:51.649Z,95.80
2019-02-07T16:59:20.690Z,95.30
2019-02-07T17:01:49.876Z,95.60
2019-02-07T17:04:18.845Z,95.60
2019-02-07T17:06:47.951Z,95.60
2019-02-07T17:09:45.950Z,95.80
2019-02-07T17:12:18.373Z,95.70
2019-02-07T17:14:47.409Z,95.70
2019-02-07T17:17:16.455Z,95.80
2019-02-07T17:19:45.540Z,96.00
2019-02-07T17:22:16.571Z,96.00
2019-02-07T17:24:45.382Z,96.50
2019-02-07T17:27:14.471Z,96.00
2019-02-07T17:29:43.514Z,96.30
2019-02-07T17:32:12.538Z,96.60
2019-02-07T17:34:41.621Z,96.20
2019-02-07T17:37:10.679Z,96.40
2019-02-07T17:39:39.710Z,96.40
2019-02-07T17:42:08.784Z,96.30
2019-02-07T17:44:37.830Z,96.30
2019-02-07T17:47:06.810Z,96.40
2019-02-07T17:49:35.815Z,96.60
2019-02-07T17:52:04.875Z,96.70
2019-02-07T17:54:33.946Z,96.70
2019-02-07T17:57:03.250Z,96.70
2019-02-07T17:59:32.286Z,96.90
2019-02-07T18:02:01.346Z,97.00
2019-02-07T18:04:30.406Z,97.30
2019-02-07T18:06:59.442Z,97.20
2019-02-07T18:09:28.498Z,97.40
2019-02-07T18:11:57.945Z,97.60
2019-02-07T18:14:26.920Z,97.60
2019-02-07T18:16:55.887Z,97.70
2019-02-07T18:19:24.959Z,97.90
2019-02-07T18:21:53.997Z,97.90
2019-02-07T18:24:22.976Z,98.20
2019-02-07T18:26:52.070Z,98.10
2019-02-07T18:29:21.136Z,98.10
2019-02-07T18:31:50.105Z,98.30
2019-02-07T18:34:19.092Z,98.50
2019-02-07T18:36:48.061Z,98.50
2019-02-07T18:39:17.106Z,98.60
2019-02-07T18:41:46.182Z,98.80
2019-02-07T18:44:15.222Z,99.20
2019-02-07T18:46:44.274Z,99.00
2019-02-07T18:49:13.322Z,99.20
2019-02-07T18:51:45.782Z,99.20
